Ana Sayfa
METAR-TAF:

METAR-TAF

Havaalanları :

Twin County Airport

Galax / Hillsville, Virginia, Amerika Birleşik Devletleri

Enlem: 36-46N, Boylam: 080-49W, yükseklik: 834 m

Güncel hava durumu gözlemi

Rapor saat 10:15 UTC de 30 dakika önce yapıldı.
Sakin rüzgar
Sıcaklık 20°C
Nem 94%
Basınç 1018 hPa
Görüş mesafesi: 16.1 km
Açık gökyüzü

METAR: KHLX 221015Z AUTO 00000KT 10SM CLR 20/19 A3005 RMK AO2 T01970191

Saat: 06:45 (10:45 UTC)


TAF: eksik

4.000'den fazla havaalanı için hava durumu gözlemleri ve tahminleri (METAR ve TAF raporları).

Kullanılabilir istasyonlar harita üzerinde sarı ve kırmızı noktalarla gösterilir.

İstasyonun adını görmek için fareyi noktanın üzerinde gezdirin.

Sonrasında hava gözlem ve tahminlerini görmek için tıklayın.

Haritayı değiştirmek için: yaklaştırmak için siyah artı işaretli yeşil düğmeye ve uzaklaştırmak için de eksi işaretli düğmeye hızla tıklayın; bitişik haritalar için yeşil okları kullanın.


METAR-TAF: